Time;durP1;ratioP1;P1;durP2;ratioP2;P2;SDS_P1;SDS_P2;PMS_P1;PMS_P2;Temp;Humidity;BMP_temperature;BMP_pressure;BME280_temperature;BME280_humidity;BME280_pressure;Samples;Min_cycle;Max_cycle;Signal;HPM_P1;HPM_P2
2021/12/18 00:01:15;;;;;;;5.23;3.30;;;7.20;99.90;;;;;;5058721;27;20307;-42
2021/12/18 00:03:42;;;;;;;10.00;3.83;;;7.20;99.90;;;;;;5078791;28;20219;-45
2021/12/18 00:06:09;;;;;;;8.67;4.40;;;7.20;99.90;;;;;;5049694;28;20254;-46
2021/12/18 00:08:36;;;;;;;10.70;4.60;;;7.10;99.90;;;;;;5078457;28;20203;-46
2021/12/18 00:11:03;;;;;;;9.40;4.33;;;7.20;99.90;;;;;;5051144;28;21235;-46
2021/12/18 00:13:32;;;;;;;8.67;3.90;;;7.20;99.90;;;;;;5067739;28;20227;-45
2021/12/18 00:15:59;;;;;;;7.90;4.50;;;7.20;99.90;;;;;;5079290;27;20211;-46
2021/12/18 00:18:26;;;;;;;6.47;3.90;;;7.20;99.90;;;;;;5068499;28;20222;-46
2021/12/18 00:20:53;;;;;;;7.73;4.57;;;7.20;99.90;;;;;;5068821;28;20252;-43
2021/12/18 00:23:19;;;;;;;6.17;3.70;;;7.20;99.90;;;;;;5074437;28;20214;-43
2021/12/18 00:25:47;;;;;;;5.93;3.60;;;7.20;99.90;;;;;;5067034;28;20210;-43
2021/12/18 00:28:13;;;;;;;6.57;3.90;;;7.20;99.90;;;;;;5061152;28;20199;-43
2021/12/18 00:30:42;;;;;;;6.33;4.13;;;7.10;99.90;;;;;;5075443;28;20203;-43
2021/12/18 00:33:09;;;;;;;7.90;4.57;;;7.10;99.90;;;;;;5071718;28;20215;-43
2021/12/18 00:35:37;;;;;;;10.30;4.40;;;7.20;99.90;;;;;;5067771;28;20255;-43
2021/12/18 00:38:05;;;;;;;7.70;3.43;;;7.20;99.90;;;;;;5069321;28;20222;-43
2021/12/18 00:40:44;;;;;;;9.20;3.97;;;7.20;99.90;;;;;;5082151;28;20210;-43
2021/12/18 00:43:22;;;;;;;6.43;2.60;;;7.20;99.90;;;;;;5057326;28;20491;-43
2021/12/18 00:45:52;;;;;;;6.87;2.80;;;7.20;99.90;;;;;;5060951;28;20539;-43
2021/12/18 00:48:19;;;;;;;6.43;3.40;;;7.10;99.90;;;;;;5057608;28;20698;-43
2021/12/18 00:50:46;;;;;;;7.93;3.17;;;7.20;99.90;;;;;;5077155;28;20255;-43
2021/12/18 00:53:13;;;;;;;5.70;3.27;;;7.10;99.90;;;;;;5069555;27;20233;-43
2021/12/18 00:55:40;;;;;;;9.67;4.10;;;7.10;99.90;;;;;;5083714;27;20970;-43
2021/12/18 00:58:08;;;;;;;8.77;4.33;;;7.10;99.90;;;;;;5049985;28;20217;-42
2021/12/18 01:00:38;;;;;;;11.03;4.23;;;7.10;99.90;;;;;;5078926;28;20205;-42
2021/12/18 01:03:14;;;;;;;12.40;4.10;;;7.10;99.90;;;;;;5057304;28;20207;-42
2021/12/18 01:05:41;;;;;;;7.27;3.20;;;7.20;99.90;;;;;;5074640;28;20226;-42
2021/12/18 01:08:09;;;;;;;8.00;3.47;;;7.10;99.90;;;;;;5060305;28;20213;-42
2021/12/18 01:10:50;;;;;;;7.03;2.80;;;7.10;99.90;;;;;;5073598;28;20260;-42
2021/12/18 01:13:22;;;;;;;6.33;3.00;;;7.10;99.90;;;;;;5035646;28;20259;-42
2021/12/18 01:15:52;;;;;;;9.07;3.00;;;7.10;99.90;;;;;;5077753;28;20876;-43
2021/12/18 01:23:51;;;;;;;10.17;3.03;;;7.10;99.90;;;;;;5079895;28;20288;-47
2021/12/18 01:26:18;;;;;;;6.57;3.00;;;7.10;99.90;;;;;;5056650;28;20898;-46
2021/12/18 01:28:45;;;;;;;8.73;3.30;;;7.10;99.90;;;;;;5059229;27;20225;-47
2021/12/18 01:31:12;;;;;;;10.13;2.90;;;7.10;99.90;;;;;;5066623;28;20316;-48
2021/12/18 01:33:40;;;;;;;8.90;2.87;;;7.10;99.90;;;;;;5056187;28;20226;-47
2021/12/18 01:36:07;;;;;;;8.67;2.63;;;7.10;99.90;;;;;;5065437;28;20673;-45
2021/12/18 01:38:34;;;;;;;4.67;2.00;;;7.10;99.90;;;;;;5053107;28;20200;-46
2021/12/18 01:41:02;;;;;;;7.57;2.40;;;7.10;99.90;;;;;;5077641;28;20212;-43
2021/12/18 01:46:39;;;;;;;9.63;2.70;;;7.10;99.90;;;;;;5044860;28;20234;-46
2021/12/18 01:52:05;;;;;;;6.73;2.87;;;7.10;99.90;;;;;;5069909;28;20219;-46
2021/12/18 01:54:31;;;;;;;10.60;2.23;;;7.10;99.90;;;;;;5049545;28;20231;-46
2021/12/18 01:57:00;;;;;;;6.70;2.33;;;7.10;99.90;;;;;;5073809;28;20214;-45
2021/12/18 01:59:34;;;;;;;9.43;2.63;;;7.10;99.90;;;;;;5056257;28;20256;-45
2021/12/18 02:02:01;;;;;;;8.57;3.03;;;7.10;99.90;;;;;;5064440;28;20394;-45
2021/12/18 02:04:30;;;;;;;6.90;2.63;;;7.10;99.90;;;;;;5070064;28;20716;-46
2021/12/18 02:06:58;;;;;;;7.40;2.67;;;7.10;99.90;;;;;;5080778;28;20213;-43
2021/12/18 02:09:32;;;;;;;9.53;3.33;;;7.10;99.90;;;;;;5068957;28;20197;-43
2021/12/18 02:12:00;;;;;;;11.10;3.53;;;7.10;99.90;;;;;;5077667;28;20199;-43
2021/12/18 02:19:32;;;;;;;9.70;3.33;;;7.10;99.90;;;;;;5073345;28;20230;-44
2021/12/18 02:20:22;;;;;;;6.83;3.23;;;7.20;99.90;;;;;;5065313;28;20261;-43
2021/12/18 02:22:49;;;;;;;7.57;2.80;;;7.20;99.90;;;;;;5057378;28;20211;-43
2021/12/18 02:25:16;;;;;;;11.87;3.53;;;7.10;99.90;;;;;;5069686;28;20226;-44
2021/12/18 02:27:43;;;;;;;6.63;2.57;;;7.20;99.90;;;;;;5079194;28;20433;-44
2021/12/18 02:30:11;;;;;;;6.57;2.70;;;7.20;99.90;;;;;;5059827;28;20221;-43
2021/12/18 02:32:38;;;;;;;9.07;3.07;;;7.10;99.90;;;;;;5047115;28;20214;-43
2021/12/18 02:35:06;;;;;;;8.57;3.30;;;7.10;99.90;;;;;;5074917;28;20230;-46
2021/12/18 02:37:39;;;;;;;7.00;2.87;;;7.20;99.90;;;;;;5070257;28;20218;-46
2021/12/18 02:42:53;;;;;;;6.60;3.07;;;7.20;99.90;;;;;;5074728;28;20256;-46
2021/12/18 02:45:21;;;;;;;8.40;3.17;;;7.10;99.90;;;;;;5069305;28;20620;-45
2021/12/18 02:47:48;;;;;;;6.07;3.10;;;7.10;99.90;;;;;;5065626;28;20265;-47
2021/12/18 02:50:15;;;;;;;6.40;3.17;;;7.10;99.90;;;;;;5076772;28;20207;-46
2021/12/18 02:52:43;;;;;;;7.20;2.97;;;7.10;99.90;;;;;;5064301;28;20209;-45
2021/12/18 02:55:11;;;;;;;8.20;3.47;;;7.10;99.90;;;;;;5065593;28;20242;-46
2021/12/18 02:57:37;;;;;;;7.33;3.13;;;7.10;99.90;;;;;;5073227;28;20207;-46
2021/12/18 03:00:06;;;;;;;6.43;3.43;;;7.20;99.90;;;;;;5066779;28;20206;-46
2021/12/18 03:02:38;;;;;;;6.50;2.83;;;7.20;99.90;;;;;;5036909;28;20301;-46
2021/12/18 03:05:09;;;;;;;9.03;3.57;;;7.20;99.90;;;;;;5080781;28;20302;-46
2021/12/18 03:07:36;;;;;;;6.13;3.33;;;7.20;99.90;;;;;;5066435;28;20210;-46
2021/12/18 03:23:49;;;;;;;9.50;2.70;;;7.20;99.90;;;;;;5072168;28;20246;-46
2021/12/18 03:26:17;;;;;;;5.27;2.30;;;7.10;99.90;;;;;;5070288;28;20211;-42
2021/12/18 03:28:44;;;;;;;4.40;2.50;;;7.10;99.90;;;;;;5062012;28;21366;-42
2021/12/18 03:31:11;;;;;;;4.83;2.40;;;7.10;99.90;;;;;;5059493;28;20231;-42
2021/12/18 03:33:38;;;;;;;3.97;2.23;;;7.10;99.90;;;;;;5055257;28;20245;-42
2021/12/18 03:36:07;;;;;;;4.30;2.23;;;7.20;99.90;;;;;;5083100;27;20203;-42
2021/12/18 03:38:35;;;;;;;5.80;2.70;;;7.20;99.90;;;;;;5069842;28;20208;-42
2021/12/18 03:41:02;;;;;;;5.77;2.20;;;7.20;99.90;;;;;;5078682;28;20203;-42
2021/12/18 03:43:30;;;;;;;4.93;2.80;;;7.10;99.90;;;;;;5059053;28;20226;-47
2021/12/18 03:45:57;;;;;;;4.00;2.37;;;7.20;99.90;;;;;;5080043;28;20333;-43
2021/12/18 03:48:24;;;;;;;4.03;2.13;;;7.20;99.90;;;;;;5064696;28;20210;-43
2021/12/18 03:50:52;;;;;;;4.90;1.93;;;7.20;99.90;;;;;;5063317;28;20199;-43
2021/12/18 03:53:19;;;;;;;6.50;2.27;;;7.20;99.90;;;;;;5061890;28;21014;-44
2021/12/18 03:55:47;;;;;;;3.43;2.27;;;7.20;99.90;;;;;;5077444;28;20201;-43
2021/12/18 03:58:14;;;;;;;4.73;2.20;;;7.20;99.90;;;;;;5064859;28;20210;-43
2021/12/18 04:00:42;;;;;;;4.37;2.30;;;7.20;99.90;;;;;;5072069;28;20205;-43
2021/12/18 04:03:09;;;;;;;7.43;3.00;;;7.20;99.90;;;;;;5079413;28;20202;-43
2021/12/18 04:05:37;;;;;;;5.93;2.60;;;7.20;99.90;;;;;;5057520;28;20230;-43
2021/12/18 04:08:09;;;;;;;5.60;2.93;;;7.20;99.90;;;;;;5063305;28;20221;-43
2021/12/18 04:10:37;;;;;;;5.17;2.40;;;7.20;99.90;;;;;;5077798;28;20232;-43
2021/12/18 04:13:06;;;;;;;5.07;2.30;;;7.20;99.90;;;;;;5068937;28;20966;-43
2021/12/18 04:15:33;;;;;;;4.07;2.60;;;7.20;99.90;;;;;;5083457;28;20593;-43
2021/12/18 04:18:01;;;;;;;3.03;2.07;;;7.20;99.90;;;;;;5076735;28;20297;-43
2021/12/18 04:20:28;;;;;;;3.83;2.30;;;7.20;99.90;;;;;;5065337;28;20373;-44
2021/12/18 04:22:56;;;;;;;3.77;2.30;;;7.20;99.90;;;;;;5044521;28;20204;-44
2021/12/18 04:25:23;;;;;;;3.40;1.80;;;7.20;99.90;;;;;;5084430;28;20223;-44
2021/12/18 04:27:50;;;;;;;3.73;1.93;;;7.20;99.90;;;;;;5063971;28;20845;-43
2021/12/18 04:30:18;;;;;;;3.07;1.97;;;7.20;99.90;;;;;;5078071;28;20621;-43
2021/12/18 04:32:46;;;;;;;2.87;1.90;;;7.20;99.90;;;;;;5075433;28;20922;-44
2021/12/18 04:35:14;;;;;;;3.50;1.90;;;7.20;99.90;;;;;;5065392;28;20219;-44
2021/12/18 04:37:41;;;;;;;3.23;1.77;;;7.20;99.90;;;;;;5059347;28;20219;-43
2021/12/18 04:40:10;;;;;;;2.87;1.37;;;7.20;99.90;;;;;;5069191;28;20208;-43
2021/12/18 04:42:37;;;;;;;2.20;1.60;;;7.20;99.90;;;;;;5077273;28;20218;-43
2021/12/18 04:45:05;;;;;;;2.13;1.43;;;7.20;99.90;;;;;;5069191;28;20212;-44
2021/12/18 04:47:32;;;;;;;2.27;1.50;;;7.20;99.90;;;;;;5080354;28;20210;-46
2021/12/18 04:49:59;;;;;;;2.30;1.83;;;7.20;99.90;;;;;;5068859;28;20200;-43
2021/12/18 04:52:28;;;;;;;2.50;1.70;;;7.20;99.90;;;;;;5060102;28;20204;-44
2021/12/18 04:54:55;;;;;;;6.10;2.40;;;7.20;99.90;;;;;;5069658;28;20908;-44
2021/12/18 04:57:21;;;;;;;3.57;2.10;;;7.20;99.90;;;;;;5080227;27;20203;-43
2021/12/18 04:59:48;;;;;;;3.67;2.23;;;7.20;99.90;;;;;;5067267;28;20290;-44
2021/12/18 05:02:20;;;;;;;3.47;2.10;;;7.20;99.90;;;;;;5080580;28;20433;-43
2021/12/18 05:04:47;;;;;;;3.77;1.90;;;7.20;99.90;;;;;;5067526;28;20225;-48
2021/12/18 05:07:14;;;;;;;2.83;1.80;;;7.20;99.90;;;;;;5072639;28;20211;-48
2021/12/18 05:09:43;;;;;;;7.00;2.10;;;7.20;99.90;;;;;;5058627;28;20345;-47
2021/12/18 05:12:11;;;;;;;5.40;2.30;;;7.20;99.90;;;;;;5087841;27;20290;-47
2021/12/18 05:14:38;;;;;;;3.53;2.10;;;7.20;99.90;;;;;;5070648;27;20227;-48
2021/12/18 05:17:05;;;;;;;4.57;2.50;;;7.20;99.90;;;;;;5078144;27;20200;-47
2021/12/18 05:19:32;;;;;;;4.33;2.37;;;7.20;99.90;;;;;;5080721;28;20214;-43
2021/12/18 05:21:59;;;;;;;5.90;2.50;;;7.30;99.90;;;;;;5065542;27;20210;-43
2021/12/18 05:24:26;;;;;;;5.47;2.63;;;7.20;99.90;;;;;;5060865;28;20216;-43
2021/12/18 05:26:54;;;;;;;6.30;2.60;;;7.20;99.90;;;;;;5072737;28;20791;-43
2021/12/18 05:29:21;;;;;;;4.30;2.47;;;7.30;99.90;;;;;;5078665;28;22362;-44
2021/12/18 05:31:49;;;;;;;6.50;2.73;;;7.20;99.90;;;;;;5068672;28;20215;-43
2021/12/18 05:34:21;;;;;;;6.27;2.67;;;7.20;99.90;;;;;;5074573;28;20251;-44
2021/12/18 05:39:33;;;;;;;4.13;2.37;;;7.30;99.90;;;;;;5060541;28;20232;-43
2021/12/18 05:42:01;;;;;;;4.00;2.63;;;7.30;99.90;;;;;;5060144;28;20199;-44
2021/12/18 05:44:28;;;;;;;3.97;2.37;;;7.30;99.90;;;;;;5074772;28;20248;-49
2021/12/18 05:46:56;;;;;;;3.87;2.00;;;7.20;99.90;;;;;;5056714;28;20748;-47
2021/12/18 05:49:23;;;;;;;3.53;2.20;;;7.20;99.90;;;;;;5078869;28;20195;-47
2021/12/18 05:51:51;;;;;;;4.10;2.33;;;7.20;99.90;;;;;;5072191;28;20299;-47
2021/12/18 05:54:18;;;;;;;3.13;2.20;;;7.30;99.90;;;;;;5072490;28;20223;-48
2021/12/18 05:56:45;;;;;;;8.67;2.43;;;7.30;99.90;;;;;;5045166;28;20704;-43
2021/12/18 05:59:13;;;;;;;3.37;2.23;;;7.30;99.90;;;;;;5078878;28;20217;-44
2021/12/18 06:01:41;;;;;;;3.23;2.10;;;7.30;99.90;;;;;;5068066;28;20214;-44
2021/12/18 06:04:08;;;;;;;3.90;2.17;;;7.30;99.90;;;;;;5078151;28;20300;-43
2021/12/18 06:06:35;;;;;;;4.43;2.30;;;7.30;99.90;;;;;;5070490;28;20207;-44
2021/12/18 06:09:03;;;;;;;5.03;2.50;;;7.30;99.90;;;;;;5060617;28;20207;-42
2021/12/18 06:11:31;;;;;;;5.93;2.40;;;7.30;99.90;;;;;;5063094;28;20306;-43
2021/12/18 06:13:58;;;;;;;3.23;2.30;;;7.30;99.90;;;;;;5067422;28;20235;-43
2021/12/18 06:16:27;;;;;;;3.63;2.53;;;7.30;99.90;;;;;;5079819;28;20196;-43
2021/12/18 06:18:54;;;;;;;4.43;2.77;;;7.30;99.90;;;;;;5067245;28;20207;-43
2021/12/18 06:21:22;;;;;;;4.83;2.37;;;7.30;99.90;;;;;;5074013;28;20210;-43
2021/12/18 06:23:52;;;;;;;8.77;2.87;;;7.30;99.90;;;;;;5068012;28;20350;-44
2021/12/18 06:26:20;;;;;;;5.03;2.73;;;7.30;99.90;;;;;;5081109;28;20215;-44
2021/12/18 06:28:48;;;;;;;5.70;3.00;;;7.30;99.90;;;;;;5063107;27;20252;-44
2021/12/18 06:31:15;;;;;;;5.23;2.87;;;7.40;99.90;;;;;;5065160;28;20215;-44
2021/12/18 06:33:43;;;;;;;4.60;2.60;;;7.30;99.90;;;;;;5068909;28;20326;-44
2021/12/18 06:36:10;;;;;;;6.17;2.63;;;7.40;99.90;;;;;;5076103;28;20246;-42
2021/12/18 06:38:37;;;;;;;5.57;2.80;;;7.40;99.90;;;;;;5075089;28;20580;-43
2021/12/18 06:41:04;;;;;;;6.63;3.03;;;7.40;99.90;;;;;;5072786;28;20196;-43
2021/12/18 06:43:31;;;;;;;4.43;2.60;;;7.40;99.90;;;;;;5056761;28;20207;-43
2021/12/18 06:45:58;;;;;;;6.43;3.30;;;7.40;99.90;;;;;;5073270;28;20295;-44
2021/12/18 06:48:24;;;;;;;6.40;2.83;;;7.40;99.90;;;;;;5067682;28;20279;-44
2021/12/18 06:50:53;;;;;;;6.73;2.93;;;7.40;99.90;;;;;;5077562;28;21031;-43
2021/12/18 06:53:20;;;;;;;9.73;3.27;;;7.40;99.90;;;;;;5079530;28;20195;-43
2021/12/18 06:55:47;;;;;;;10.13;3.70;;;7.40;99.90;;;;;;5053830;28;20223;-46
2021/12/18 06:58:14;;;;;;;8.67;3.57;;;7.40;99.90;;;;;;5053485;28;20203;-45
2021/12/18 07:00:41;;;;;;;9.53;3.23;;;7.40;99.90;;;;;;5058897;28;20306;-46
2021/12/18 07:03:08;;;;;;;9.30;3.27;;;7.40;99.90;;;;;;5052148;28;20920;-46
2021/12/18 07:05:35;;;;;;;9.37;3.70;;;7.40;99.90;;;;;;5081242;28;20211;-46
2021/12/18 07:08:03;;;;;;;7.50;3.40;;;7.40;99.90;;;;;;5064884;28;20215;-46
2021/12/18 07:10:31;;;;;;;7.17;3.33;;;7.50;99.90;;;;;;5082192;27;20203;-46
2021/12/18 07:12:58;;;;;;;8.17;3.97;;;7.40;99.90;;;;;;5062908;28;20212;-46
2021/12/18 07:15:25;;;;;;;7.23;3.37;;;7.50;99.90;;;;;;5062294;28;20230;-46
2021/12/18 07:17:52;;;;;;;13.87;3.27;;;7.50;99.90;;;;;;5065446;28;20207;-45
2021/12/18 07:20:19;;;;;;;7.40;3.33;;;7.40;99.90;;;;;;5067712;28;20218;-46
2021/12/18 07:22:46;;;;;;;5.57;3.17;;;7.40;99.90;;;;;;5070969;28;20204;-46
2021/12/18 07:25:15;;;;;;;5.30;3.10;;;7.50;99.90;;;;;;5073191;28;20219;-46
2021/12/18 07:27:43;;;;;;;6.83;3.43;;;7.40;99.90;;;;;;5070916;28;20211;-46
2021/12/18 07:30:12;;;;;;;7.57;3.60;;;7.50;99.90;;;;;;5044589;28;20215;-46
2021/12/18 07:32:39;;;;;;;7.17;3.27;;;7.50;99.90;;;;;;5078782;28;20303;-46
2021/12/18 07:35:07;;;;;;;5.87;3.33;;;7.50;99.90;;;;;;5051341;28;20235;-48
2021/12/18 07:37:34;;;;;;;6.57;2.90;;;7.50;99.90;;;;;;5073897;28;20203;-46
2021/12/18 07:40:01;;;;;;;6.33;3.23;;;7.50;99.90;;;;;;5059925;28;20212;-46
2021/12/18 07:42:29;;;;;;;8.30;3.03;;;7.50;99.90;;;;;;5074242;27;20225;-46
2021/12/18 07:44:57;;;;;;;8.90;3.30;;;7.50;99.90;;;;;;5054444;28;20227;-42
2021/12/18 07:47:24;;;;;;;9.60;3.67;;;7.60;99.90;;;;;;5076180;28;20257;-43
2021/12/18 07:49:51;;;;;;;7.90;3.30;;;7.60;99.90;;;;;;5074708;28;20211;-42
2021/12/18 07:52:17;;;;;;;11.20;3.70;;;7.60;99.90;;;;;;5059986;28;20207;-43
2021/12/18 07:54:44;;;;;;;8.90;3.97;;;7.60;99.90;;;;;;5044139;27;20261;-45
2021/12/18 07:57:12;;;;;;;8.60;4.03;;;7.60;99.90;;;;;;5033887;27;20212;-46
2021/12/18 07:59:41;;;;;;;9.70;4.70;;;7.60;99.90;;;;;;5049077;28;20213;-46
2021/12/18 08:02:08;;;;;;;13.77;4.60;;;7.60;99.90;;;;;;5045977;28;22801;-46
2021/12/18 08:04:35;;;;;;;13.70;5.37;;;7.70;99.90;;;;;;5054972;28;20310;-45
2021/12/18 08:07:03;;;;;;;10.67;4.80;;;7.70;99.90;;;;;;5058551;27;21421;-46
2021/12/18 08:09:31;;;;;;;14.17;5.83;;;7.70;99.90;;;;;;5045029;28;20213;-44
2021/12/18 08:11:58;;;;;;;13.63;6.30;;;7.70;99.90;;;;;;5081414;28;20265;-47
2021/12/18 08:14:25;;;;;;;15.10;6.30;;;7.70;99.90;;;;;;5057538;28;20228;-48
2021/12/18 08:16:53;;;;;;;9.20;5.67;;;7.70;99.90;;;;;;5062440;28;20211;-48
2021/12/18 08:19:20;;;;;;;10.27;5.30;;;7.80;99.90;;;;;;5043358;27;20259;-43
2021/12/18 08:21:47;;;;;;;11.47;5.03;;;7.70;99.90;;;;;;5042300;28;20221;-43
2021/12/18 08:24:14;;;;;;;6.53;4.63;;;7.70;99.90;;;;;;5033944;28;20231;-43
2021/12/18 08:26:41;;;;;;;6.67;4.10;;;7.70;99.90;;;;;;5057230;28;20218;-44
2021/12/18 08:29:08;;;;;;;5.80;3.40;;;7.70;99.90;;;;;;5050991;27;20208;-44
2021/12/18 08:31:35;;;;;;;10.27;3.57;;;7.60;99.90;;;;;;5040718;28;20277;-46
2021/12/18 08:34:03;;;;;;;6.37;2.97;;;7.70;99.90;;;;;;5060040;28;20303;-43
2021/12/18 08:36:31;;;;;;;4.07;2.90;;;7.60;99.90;;;;;;5033587;28;20338;-47
2021/12/18 08:38:58;;;;;;;5.03;2.83;;;7.60;99.90;;;;;;5060723;28;20215;-44
2021/12/18 08:41:27;;;;;;;5.33;2.80;;;7.60;99.90;;;;;;5044370;28;20221;-43
2021/12/18 08:43:54;;;;;;;4.13;2.60;;;7.60;99.90;;;;;;5047085;28;20241;-43
2021/12/18 08:46:21;;;;;;;6.50;3.07;;;7.70;99.90;;;;;;5068052;28;20200;-46
2021/12/18 08:48:48;;;;;;;5.67;2.67;;;7.70;99.90;;;;;;5048697;28;20448;-46
2021/12/18 08:51:16;;;;;;;6.37;2.60;;;7.60;99.90;;;;;;5053830;28;20705;-49
2021/12/18 08:53:43;;;;;;;5.93;3.20;;;7.70;99.90;;;;;;5054940;28;20228;-44
2021/12/18 08:56:10;;;;;;;5.03;3.00;;;7.70;99.90;;;;;;5057287;27;20223;-43
2021/12/18 08:58:37;;;;;;;5.43;2.40;;;7.70;99.90;;;;;;5052139;27;23145;-43
2021/12/18 09:01:05;;;;;;;5.93;2.47;;;7.70;99.90;;;;;;5040853;28;20795;-43
2021/12/18 09:03:32;;;;;;;6.67;2.70;;;7.70;99.90;;;;;;5047875;28;20219;-43
2021/12/18 09:06:00;;;;;;;5.93;2.10;;;7.70;99.90;;;;;;5045260;27;20204;-43
2021/12/18 09:08:28;;;;;;;3.47;2.00;;;7.70;99.90;;;;;;5052679;28;20861;-43
2021/12/18 09:10:55;;;;;;;6.67;2.47;;;7.70;99.90;;;;;;5065337;28;20217;-43
2021/12/18 09:13:22;;;;;;;8.00;2.77;;;7.70;99.90;;;;;;5062015;28;20207;-46
2021/12/18 09:15:49;;;;;;;5.90;2.60;;;7.60;99.90;;;;;;5053314;28;20231;-43
2021/12/18 09:18:17;;;;;;;4.90;2.50;;;7.70;99.90;;;;;;5054564;28;20199;-43
2021/12/18 09:20:46;;;;;;;7.33;2.77;;;7.70;99.90;;;;;;5047069;28;21412;-46
2021/12/18 09:23:16;;;;;;;3.47;2.90;;;7.70;99.90;;;;;;5060360;28;20216;-44
2021/12/18 09:25:44;;;;;;;5.00;3.13;;;7.70;99.90;;;;;;5039248;28;20224;-44
2021/12/18 09:28:12;;;;;;;6.07;2.67;;;7.70;99.90;;;;;;5072110;28;20200;-44
2021/12/18 09:30:40;;;;;;;6.40;3.13;;;7.70;99.90;;;;;;5060959;28;20196;-48
2021/12/18 09:33:07;;;;;;;4.47;3.17;;;7.70;99.90;;;;;;5055427;28;20219;-48
2021/12/18 09:35:34;;;;;;;6.43;3.10;;;7.80;99.90;;;;;;5033356;28;20431;-48
2021/12/18 09:38:02;;;;;;;7.93;3.23;;;7.80;99.90;;;;;;5039672;28;20746;-48
2021/12/18 09:40:29;;;;;;;8.27;3.40;;;7.80;99.90;;;;;;5061993;28;20734;-48
2021/12/18 09:42:58;;;;;;;4.73;3.60;;;7.80;99.90;;;;;;5046057;28;20909;-48
2021/12/18 09:45:25;;;;;;;7.57;3.70;;;7.80;99.90;;;;;;5061885;28;20228;-47
2021/12/18 09:47:53;;;;;;;3.87;2.90;;;7.80;99.90;;;;;;5057159;28;20211;-47
2021/12/18 09:50:23;;;;;;;6.80;3.70;;;7.80;99.90;;;;;;5042924;28;21571;-49
2021/12/18 09:52:51;;;;;;;7.47;3.40;;;7.80;99.90;;;;;;5041608;28;20333;-45
2021/12/18 09:55:18;;;;;;;5.37;2.73;;;7.80;99.90;;;;;;5071739;28;20216;-45
2021/12/18 09:57:46;;;;;;;9.87;3.10;;;7.80;99.90;;;;;;5061823;28;20213;-45
2021/12/18 10:00:20;;;;;;;5.87;2.40;;;7.80;99.90;;;;;;5064175;28;20298;-45
2021/12/18 10:02:47;;;;;;;10.33;2.73;;;7.80;99.90;;;;;;5064766;28;20207;-44
2021/12/18 10:05:22;;;;;;;6.17;2.20;;;7.80;99.90;;;;;;5055877;28;20427;-44
2021/12/18 10:08:11;;;;;;;5.37;2.50;;;7.80;99.90;;;;;;5040572;28;21528;-45
2021/12/18 10:10:39;;;;;;;10.60;2.73;;;7.80;99.90;;;;;;5069516;28;21094;-45
2021/12/18 10:13:10;;;;;;;8.23;2.50;;;7.80;99.90;;;;;;5033078;28;20208;-45
2021/12/18 10:15:39;;;;;;;9.97;3.03;;;7.80;99.90;;;;;;5067227;28;20708;-44
2021/12/18 10:18:08;;;;;;;6.77;2.40;;;7.90;99.90;;;;;;5042029;28;20211;-45
2021/12/18 10:20:35;;;;;;;9.43;2.57;;;7.80;99.90;;;;;;5078058;28;20210;-47
2021/12/18 10:23:04;;;;;;;9.60;3.03;;;7.80;99.90;;;;;;5042588;28;20215;-45
2021/12/18 10:25:33;;;;;;;8.27;2.53;;;7.90;99.90;;;;;;5063487;28;20329;-45
2021/12/18 10:28:07;;;;;;;11.33;3.23;;;7.90;99.90;;;;;;5054800;28;20219;-44
2021/12/18 10:30:34;;;;;;;14.80;3.13;;;7.90;99.90;;;;;;5070159;28;20206;-44
2021/12/18 10:33:07;;;;;;;7.47;2.97;;;7.90;99.90;;;;;;5065627;28;20694;-44
2021/12/18 10:35:44;;;;;;;7.43;2.50;;;7.90;99.90;;;;;;5054163;28;20234;-44
2021/12/18 10:38:38;;;;;;;11.30;2.67;;;8.00;99.90;;;;;;5031751;28;23226;-45
2021/12/18 10:41:24;;;;;;;11.33;2.60;;;8.00;99.90;;;;;;5051700;28;20957;-45
2021/12/18 10:44:01;;;;;;;6.10;2.57;;;8.30;99.90;;;;;;5045498;28;20788;-44
2021/12/18 10:46:30;;;;;;;9.87;2.40;;;8.20;99.90;;;;;;5066018;28;20203;-44
2021/12/18 10:49:03;;;;;;;8.47;2.23;;;8.30;99.90;;;;;;5063001;28;20670;-44
2021/12/18 10:51:31;;;;;;;7.40;2.47;;;8.30;99.90;;;;;;5061082;28;20223;-44
2021/12/18 10:54:04;;;;;;;11.73;2.77;;;8.30;99.90;;;;;;5049950;28;20223;-44
2021/12/18 10:56:37;;;;;;;12.70;2.77;;;8.30;99.90;;;;;;5059435;28;20231;-44
2021/12/18 10:59:07;;;;;;;6.50;2.30;;;8.20;99.90;;;;;;5042707;28;20760;-45
2021/12/18 11:01:37;;;;;;;15.90;2.70;;;8.20;99.90;;;;;;5051781;28;20207;-48
2021/12/18 11:04:06;;;;;;;13.33;3.10;;;8.30;99.90;;;;;;5059586;28;20219;-48
2021/12/18 11:06:35;;;;;;;10.10;2.60;;;8.30;99.90;;;;;;5061993;28;20215;-49
2021/12/18 11:09:07;;;;;;;12.93;2.33;;;8.30;99.90;;;;;;5044379;28;20218;-48
2021/12/18 11:14:26;;;;;;;20.37;2.63;;;8.40;99.90;;;;;;5030565;28;20759;-48
2021/12/18 11:16:55;;;;;;;9.57;2.50;;;8.40;99.90;;;;;;5069972;28;20232;-48
2021/12/18 11:19:26;;;;;;;7.33;2.53;;;8.40;99.90;;;;;;5049157;28;20207;-44
2021/12/18 11:21:55;;;;;;;10.17;2.70;;;8.50;99.90;;;;;;5068005;28;21047;-47
2021/12/18 11:24:27;;;;;;;13.97;3.10;;;8.50;99.90;;;;;;5046642;28;20701;-48
2021/12/18 11:26:59;;;;;;;11.73;2.53;;;8.50;99.90;;;;;;5057280;28;20295;-48
2021/12/18 11:29:32;;;;;;;7.17;2.20;;;8.60;99.90;;;;;;5060278;28;20695;-44
2021/12/18 11:31:59;;;;;;;7.73;2.43;;;8.60;99.90;;;;;;5045102;28;20233;-48
2021/12/18 11:34:28;;;;;;;12.53;2.23;;;8.60;99.90;;;;;;5060899;28;20827;-48
2021/12/18 11:36:56;;;;;;;7.87;2.60;;;8.50;99.90;;;;;;5054408;28;20325;-44
2021/12/18 11:39:29;;;;;;;14.07;2.20;;;8.50;99.90;;;;;;5048661;28;20473;-43
2021/12/18 11:41:56;;;;;;;12.23;2.73;;;8.50;99.90;;;;;;5049930;28;20838;-48
2021/12/18 11:44:28;;;;;;;8.03;2.70;;;8.50;99.90;;;;;;5060724;28;20223;-49
2021/12/18 11:46:56;;;;;;;11.50;2.87;;;8.60;99.90;;;;;;5051405;28;20211;-43
2021/12/18 11:49:26;;;;;;;13.90;2.77;;;8.70;99.90;;;;;;5037727;28;20966;-48
2021/12/18 11:52:04;;;;;;;7.30;2.67;;;8.70;99.90;;;;;;5055345;28;20309;-44
2021/12/18 11:54:48;;;;;;;12.83;2.50;;;8.70;99.90;;;;;;5056761;28;20232;-44
2021/12/18 11:57:41;;;;;;;6.90;2.53;;;8.70;99.90;;;;;;5066202;28;20227;-44
2021/12/18 12:00:10;;;;;;;19.67;3.13;;;8.70;99.90;;;;;;5067868;27;20197;-47
2021/12/18 12:02:45;;;;;;;11.37;3.30;;;8.70;99.90;;;;;;5046327;28;20230;-43
2021/12/18 12:05:13;;;;;;;6.90;2.50;;;8.70;99.90;;;;;;5062740;28;20222;-48
2021/12/18 12:07:43;;;;;;;9.23;2.17;;;8.70;99.90;;;;;;5061933;27;20203;-47
2021/12/18 12:10:21;;;;;;;17.67;3.20;;;8.70;99.90;;;;;;5055846;28;20214;-48
2021/12/18 12:12:51;;;;;;;9.40;2.80;;;8.90;99.90;;;;;;5049076;28;20216;-43
2021/12/18 12:15:19;;;;;;;11.93;2.87;;;8.90;99.90;;;;;;5076105;27;20448;-43
2021/12/18 12:18:01;;;;;;;13.67;3.07;;;8.90;99.90;;;;;;5067497;28;20296;-47
2021/12/18 12:20:37;;;;;;;13.57;3.50;;;8.80;99.90;;;;;;5047000;28;20291;-44
2021/12/18 12:23:06;;;;;;;11.63;2.60;;;8.90;99.90;;;;;;5057457;28;20203;-47
2021/12/18 12:25:45;;;;;;;13.77;2.97;;;8.90;99.90;;;;;;5056789;28;20237;-44
2021/12/18 12:28:15;;;;;;;12.93;2.93;;;9.10;99.90;;;;;;5047911;27;20204;-47
2021/12/18 12:30:50;;;;;;;13.90;2.90;;;9.10;99.90;;;;;;5076155;28;20250;-47
2021/12/18 12:33:27;;;;;;;14.57;3.87;;;9.00;99.90;;;;;;5050102;28;20848;-48
2021/12/18 12:36:05;;;;;;;11.03;2.80;;;9.00;99.90;;;;;;5068441;28;20199;-49
2021/12/18 12:38:35;;;;;;;8.30;2.87;;;9.00;99.90;;;;;;5067823;28;20199;-43
2021/12/18 12:41:42;;;;;;;15.30;3.27;;;9.00;99.90;;;;;;5044185;27;20215;-47
2021/12/18 12:44:18;;;;;;;12.33;3.33;;;9.10;99.90;;;;;;5045879;28;20230;-47
2021/12/18 12:46:46;;;;;;;7.97;2.30;;;9.00;99.90;;;;;;5062750;28;20741;-48
2021/12/18 12:49:18;;;;;;;9.83;2.60;;;9.10;99.90;;;;;;5048946;28;20195;-42
2021/12/18 12:52:08;;;;;;;11.27;2.87;;;9.10;99.90;;;;;;5068023;28;20547;-44
2021/12/18 12:54:48;;;;;;;13.67;3.40;;;9.10;99.90;;;;;;5074029;28;20281;-48
2021/12/18 12:57:42;;;;;;;14.37;2.63;;;9.10;99.90;;;;;;5034721;28;20228;-49
2021/12/18 13:00:34;;;;;;;13.40;2.83;;;9.10;99.90;;;;;;5053195;28;20266;-48
2021/12/18 13:03:07;;;;;;;15.20;2.87;;;9.10;99.90;;;;;;5064688;28;20212;-47
2021/12/18 13:05:46;;;;;;;14.33;3.13;;;9.10;99.90;;;;;;5049834;28;20228;-47
2021/12/18 13:08:14;;;;;;;9.30;2.80;;;9.10;99.90;;;;;;5052418;28;20211;-48
2021/12/18 13:10:43;;;;;;;15.93;2.70;;;9.10;99.90;;;;;;5053166;28;20630;-47
2021/12/18 13:13:11;;;;;;;10.03;2.57;;;9.20;99.90;;;;;;5030727;28;20212;-48
2021/12/18 13:15:53;;;;;;;13.83;3.37;;;9.20;99.90;;;;;;5068183;28;20222;-43
2021/12/18 13:18:23;;;;;;;9.43;2.63;;;9.20;99.90;;;;;;5070823;28;20802;-46
2021/12/18 13:20:55;;;;;;;12.80;3.20;;;9.10;99.90;;;;;;5051015;28;21589;-47
2021/12/18 13:23:24;;;;;;;8.13;2.87;;;9.10;99.90;;;;;;5062386;28;20286;-47
2021/12/18 13:25:56;;;;;;;15.37;3.07;;;9.10;99.90;;;;;;5038415;27;21123;-48
2021/12/18 13:28:23;;;;;;;6.17;2.80;;;9.10;99.90;;;;;;5041645;28;20211;-43
2021/12/18 13:30:54;;;;;;;11.60;3.03;;;9.10;99.90;;;;;;5064289;28;20232;-43
2021/12/18 13:33:25;;;;;;;13.43;2.90;;;9.10;99.90;;;;;;5067267;28;20416;-43
2021/12/18 13:35:57;;;;;;;14.80;4.73;;;9.00;99.90;;;;;;5049789;28;20317;-49
2021/12/18 13:38:26;;;;;;;9.87;2.80;;;9.00;99.90;;;;;;5060014;28;20960;-48
2021/12/18 13:40:55;;;;;;;8.17;2.90;;;9.00;99.90;;;;;;5053584;28;20226;-44
2021/12/18 13:43:23;;;;;;;10.53;3.50;;;9.00;99.90;;;;;;5057098;28;20222;-44